createdAt,value
2019-03-04T00:00:17.851Z,12.63
2019-03-04T00:01:17.811Z,12.61
2019-03-04T00:02:17.842Z,12.63
2019-03-04T00:03:17.860Z,12.54
2019-03-04T00:04:17.831Z,12.57
2019-03-04T00:05:17.921Z,12.61
2019-03-04T00:06:17.832Z,12.61
2019-03-04T00:07:17.854Z,12.57
2019-03-04T00:08:17.877Z,12.48
2019-03-04T00:09:17.874Z,12.55
2019-03-04T00:10:17.856Z,12.51
2019-03-04T00:11:17.885Z,12.53
2019-03-04T00:12:18.241Z,12.53
2019-03-04T00:13:17.905Z,12.53
2019-03-04T00:14:17.929Z,12.40
2019-03-04T00:15:17.902Z,12.55
2019-03-04T00:16:17.917Z,12.51
2019-03-04T00:17:17.918Z,12.51
2019-03-04T00:18:17.953Z,12.50
2019-03-04T00:19:17.932Z,12.54
2019-03-04T00:20:17.956Z,12.58
2019-03-04T00:21:17.927Z,12.54
2019-03-04T00:22:17.941Z,12.61
2019-03-04T00:23:17.995Z,12.57
2019-03-04T00:24:17.950Z,12.62
2019-03-04T00:25:17.975Z,12.55
2019-03-04T00:26:17.955Z,12.53
2019-03-04T00:27:17.961Z,12.57
2019-03-04T00:28:17.974Z,12.51
2019-03-04T00:29:18.018Z,12.50
2019-03-04T00:30:17.996Z,12.61
2019-03-04T00:31:17.992Z,12.61
2019-03-04T00:32:18.037Z,12.61
2019-03-04T00:33:18.007Z,12.65
2019-03-04T00:34:18.065Z,12.65
2019-03-04T00:35:18.015Z,12.57
2019-03-04T00:36:18.125Z,12.55
2019-03-04T00:37:18.040Z,12.62
2019-03-04T00:38:18.039Z,12.47
2019-03-04T00:39:18.045Z,12.40
2019-03-04T00:40:18.062Z,12.43
2019-03-04T00:41:18.047Z,12.39
2019-03-04T00:42:18.055Z,12.40
2019-03-04T00:43:18.097Z,12.51
2019-03-04T00:44:18.180Z,12.39
2019-03-04T00:45:18.116Z,12.43
2019-03-04T00:46:18.095Z,12.51
2019-03-04T00:47:18.092Z,12.54
2019-03-04T00:48:18.079Z,12.50
2019-03-04T00:49:18.112Z,12.39
2019-03-04T00:50:18.151Z,12.37
2019-03-04T00:51:18.131Z,12.32
2019-03-04T00:52:18.111Z,12.39
2019-03-04T00:53:18.118Z,12.37
2019-03-04T00:54:18.116Z,12.39
2019-03-04T00:55:18.147Z,12.35
2019-03-04T00:56:18.157Z,12.36
2019-03-04T00:57:18.195Z,12.30
2019-03-04T00:58:18.145Z,12.33
2019-03-04T00:59:18.166Z,12.37
2019-03-04T01:00:18.174Z,12.30
2019-03-04T01:01:18.184Z,12.29
2019-03-04T01:02:18.169Z,12.28
2019-03-04T01:03:18.181Z,12.20
2019-03-04T01:04:18.187Z,12.14
2019-03-04T01:05:18.195Z,12.12
2019-03-04T01:06:18.209Z,12.18
2019-03-04T01:07:18.194Z,12.23
2019-03-04T01:08:18.366Z,12.21
2019-03-04T01:09:18.219Z,12.21
2019-03-04T01:10:18.218Z,12.33
2019-03-04T01:11:18.227Z,12.28
2019-03-04T01:12:18.220Z,12.28
2019-03-04T01:13:18.237Z,12.30
2019-03-04T01:14:18.252Z,12.33
2019-03-04T01:15:18.245Z,12.37
2019-03-04T01:16:18.251Z,12.40
2019-03-04T01:17:18.251Z,12.44
2019-03-04T01:18:18.289Z,12.44
2019-03-04T01:19:18.295Z,12.44
2019-03-04T01:20:18.269Z,12.40
2019-03-04T01:21:18.283Z,12.39
2019-03-04T01:22:18.314Z,12.40
2019-03-04T01:23:18.421Z,12.43
2019-03-04T01:24:18.302Z,12.43
2019-03-04T01:25:18.313Z,12.51
2019-03-04T01:26:18.308Z,12.48
2019-03-04T01:27:18.335Z,12.54
2019-03-04T01:28:18.319Z,12.44
2019-03-04T01:29:18.339Z,12.55
2019-03-04T01:30:18.374Z,12.55
2019-03-04T01:31:18.347Z,12.57
2019-03-04T01:32:18.371Z,12.63
2019-03-04T01:33:18.370Z,12.58
2019-03-04T01:34:18.362Z,12.57
2019-03-04T01:35:18.401Z,12.62
2019-03-04T01:36:18.387Z,12.62
2019-03-04T01:37:18.389Z,12.69
2019-03-04T01:38:18.372Z,12.70
2019-03-04T01:39:18.416Z,12.70
2019-03-04T01:40:18.409Z,12.76
2019-03-04T01:41:18.395Z,12.83
2019-03-04T01:42:18.510Z,12.75
2019-03-04T01:43:18.442Z,12.84
2019-03-04T01:44:18.550Z,12.86
2019-03-04T01:45:18.433Z,12.94
2019-03-04T01:46:18.432Z,12.78
2019-03-04T01:47:18.469Z,12.84
2019-03-04T01:48:18.464Z,12.87
2019-03-04T01:49:18.442Z,12.84
2019-03-04T01:50:18.491Z,12.87
2019-03-04T01:51:18.507Z,12.80
2019-03-04T01:52:18.488Z,12.84
2019-03-04T01:53:18.493Z,12.84
2019-03-04T01:54:18.536Z,12.76
2019-03-04T01:55:18.531Z,12.81
2019-03-04T01:56:18.509Z,12.75
2019-03-04T01:57:18.519Z,12.76
2019-03-04T01:58:18.517Z,12.72
2019-03-04T01:59:18.525Z,12.69
2019-03-04T02:00:18.524Z,12.69
2019-03-04T02:01:18.548Z,12.68
2019-03-04T02:02:18.541Z,12.70
2019-03-04T02:03:18.566Z,12.68
2019-03-04T02:04:18.568Z,12.72
2019-03-04T02:05:18.547Z,12.72
2019-03-04T02:06:18.538Z,12.61
2019-03-04T02:07:18.541Z,12.63
2019-03-04T02:08:18.614Z,12.55
2019-03-04T02:09:18.573Z,12.57
2019-03-04T02:10:18.585Z,12.61
2019-03-04T02:11:18.586Z,12.57
2019-03-04T02:12:18.572Z,12.55
2019-03-04T02:13:18.583Z,12.53
2019-03-04T02:14:18.606Z,12.39
2019-03-04T02:15:18.618Z,12.39
2019-03-04T02:16:18.608Z,12.37
2019-03-04T02:17:18.629Z,12.44
2019-03-04T02:18:18.605Z,12.37
2019-03-04T02:19:18.657Z,12.37
2019-03-04T02:20:18.623Z,12.30
2019-03-04T02:21:18.634Z,12.26
2019-03-04T02:22:18.646Z,12.25
2019-03-04T02:23:18.654Z,12.25
2019-03-04T02:24:18.674Z,12.25
2019-03-04T02:25:18.651Z,12.12
2019-03-04T02:26:18.692Z,12.18
2019-03-04T02:27:18.667Z,12.17
2019-03-04T02:28:18.671Z,12.14
2019-03-04T02:29:18.700Z,12.12
2019-03-04T02:30:18.731Z,12.10
2019-03-04T02:31:18.734Z,12.15
2019-03-04T02:32:18.711Z,12.07
2019-03-04T02:33:18.716Z,11.99
2019-03-04T02:34:18.723Z,11.91
2019-03-04T02:35:18.707Z,11.93
2019-03-04T02:36:18.769Z,11.86
2019-03-04T02:37:18.727Z,11.91
2019-03-04T02:38:18.777Z,11.77
2019-03-04T02:39:18.744Z,11.83
2019-03-04T02:40:18.758Z,11.80
2019-03-04T02:41:18.739Z,11.74
2019-03-04T02:42:18.774Z,11.76
2019-03-04T02:43:18.777Z,11.76
2019-03-04T02:44:18.754Z,11.78
2019-03-04T02:45:18.789Z,11.80
2019-03-04T02:46:18.788Z,11.78
2019-03-04T02:47:18.781Z,11.78
2019-03-04T02:48:18.786Z,11.76
2019-03-04T02:49:18.798Z,11.83
2019-03-04T02:50:18.795Z,11.77
2019-03-04T02:51:18.840Z,11.83
2019-03-04T02:52:18.813Z,11.77
2019-03-04T02:53:18.807Z,11.73
2019-03-04T02:54:18.819Z,11.88
2019-03-04T02:55:18.836Z,11.80
2019-03-04T02:56:18.850Z,11.78
2019-03-04T02:57:18.825Z,11.81
2019-03-04T02:58:18.856Z,11.78
2019-03-04T02:59:18.876Z,11.78
2019-03-04T03:00:18.889Z,11.78
2019-03-04T03:01:18.842Z,11.78
2019-03-04T03:02:18.857Z,11.80
2019-03-04T03:03:18.864Z,11.81
2019-03-04T03:04:18.865Z,11.77
2019-03-04T03:05:18.908Z,11.85
2019-03-04T03:06:18.923Z,11.78
2019-03-04T03:07:18.879Z,11.77
2019-03-04T03:08:18.885Z,11.80
2019-03-04T03:09:18.901Z,11.76
2019-03-04T03:10:18.898Z,11.78
2019-03-04T03:11:18.914Z,11.77
2019-03-04T03:12:18.949Z,11.78
2019-03-04T03:13:18.923Z,11.83
2019-03-04T03:14:18.931Z,11.78
2019-03-04T03:15:18.926Z,11.81
2019-03-04T03:16:18.937Z,11.81
2019-03-04T03:17:18.986Z,11.78
2019-03-04T03:18:18.954Z,11.85
2019-03-04T03:19:18.962Z,11.77
2019-03-04T03:20:18.960Z,11.83
2019-03-04T03:21:18.962Z,11.81
2019-03-04T03:22:18.976Z,11.74
2019-03-04T03:23:19.011Z,11.78
2019-03-04T03:24:19.004Z,11.68
2019-03-04T03:25:18.978Z,11.63
2019-03-04T03:26:19.008Z,11.67
2019-03-04T03:27:19.007Z,11.63
2019-03-04T03:28:19.033Z,11.74
2019-03-04T03:29:18.996Z,11.67
2019-03-04T03:30:19.033Z,11.71
2019-03-04T03:31:19.032Z,11.70
2019-03-04T03:32:19.011Z,11.63
2019-03-04T03:33:19.063Z,11.68
2019-03-04T03:34:19.074Z,11.68
2019-03-04T03:35:19.061Z,11.60
2019-03-04T03:36:19.037Z,11.68
2019-03-04T03:37:19.056Z,11.70
2019-03-04T03:38:19.072Z,11.65
2019-03-04T03:39:19.087Z,11.71
2019-03-04T03:40:19.102Z,11.70
2019-03-04T03:41:19.069Z,11.68
2019-03-04T03:42:19.288Z,11.65
2019-03-04T03:43:19.068Z,11.71
2019-03-04T03:44:19.101Z,11.65
2019-03-04T03:45:19.100Z,11.62
2019-03-04T03:46:19.141Z,11.62
2019-03-04T03:47:19.101Z,11.53
2019-03-04T03:48:19.109Z,11.62
2019-03-04T03:49:19.117Z,11.58
2019-03-04T03:50:19.161Z,11.55
2019-03-04T03:51:19.155Z,11.59
2019-03-04T03:52:19.143Z,11.55
2019-03-04T03:53:19.216Z,11.58
2019-03-04T03:54:19.141Z,11.53
2019-03-04T03:55:19.149Z,11.56
2019-03-04T03:56:19.199Z,11.58
2019-03-04T03:57:19.167Z,11.55
2019-03-04T03:58:19.359Z,11.52
2019-03-04T03:59:19.177Z,11.59
2019-03-04T04:00:19.198Z,11.55
2019-03-04T04:01:19.176Z,11.70
2019-03-04T04:02:19.220Z,11.60
2019-03-04T04:03:19.197Z,11.71
2019-03-04T04:04:19.218Z,11.65
2019-03-04T04:05:19.202Z,11.63
2019-03-04T04:06:19.204Z,11.70
2019-03-04T04:07:19.232Z,11.70
2019-03-04T04:08:19.228Z,11.71
2019-03-04T04:09:19.246Z,11.71
2019-03-04T04:10:19.274Z,11.71
2019-03-04T04:11:19.232Z,11.73
2019-03-04T04:12:19.247Z,11.78
2019-03-04T04:13:19.273Z,11.73
2019-03-04T04:14:19.235Z,11.78
2019-03-04T04:15:19.242Z,11.70
2019-03-04T04:16:19.267Z,11.74
2019-03-04T04:17:19.261Z,11.80
2019-03-04T04:18:19.312Z,11.77
2019-03-04T04:19:19.274Z,11.74
2019-03-04T04:20:19.309Z,11.71
2019-03-04T04:21:19.283Z,11.78
2019-03-04T04:22:19.310Z,11.80
2019-03-04T04:23:19.308Z,11.86
2019-03-04T04:24:19.339Z,11.81
2019-03-04T04:25:19.316Z,11.85
2019-03-04T04:26:19.321Z,11.80
2019-03-04T04:27:19.327Z,11.77
2019-03-04T04:28:19.349Z,11.74
2019-03-04T04:29:19.319Z,11.89
2019-03-04T04:30:19.376Z,11.89
2019-03-04T04:31:19.345Z,11.97
2019-03-04T04:32:19.354Z,11.96
2019-03-04T04:33:19.344Z,11.89
2019-03-04T04:34:19.376Z,11.97
2019-03-04T04:35:19.381Z,11.95
2019-03-04T04:36:19.372Z,11.95
2019-03-04T04:37:19.384Z,11.95
2019-03-04T04:38:19.401Z,11.93
2019-03-04T04:39:19.386Z,11.93
2019-03-04T04:40:19.443Z,11.97
2019-03-04T04:41:19.431Z,11.91
2019-03-04T04:42:19.408Z,11.96
2019-03-04T04:43:19.415Z,11.91
2019-03-04T04:44:19.427Z,11.91
2019-03-04T04:45:19.420Z,12.00
2019-03-04T04:46:19.549Z,12.00
2019-03-04T04:47:19.414Z,12.10
2019-03-04T04:48:19.507Z,12.02
2019-03-04T04:49:19.444Z,12.02
2019-03-04T04:50:19.448Z,12.00
2019-03-04T04:51:19.466Z,12.07
2019-03-04T04:52:19.461Z,12.02
2019-03-04T04:53:19.454Z,12.07
2019-03-04T04:54:19.463Z,12.17
2019-03-04T04:55:19.498Z,12.11
2019-03-04T04:56:19.516Z,12.11
2019-03-04T04:57:19.482Z,12.10
2019-03-04T04:58:19.486Z,12.10
2019-03-04T04:59:19.496Z,12.10
2019-03-04T05:00:19.501Z,12.14
2019-03-04T05:01:19.539Z,12.18
2019-03-04T05:02:19.514Z,12.20
2019-03-04T05:03:19.558Z,12.18
2019-03-04T05:04:19.517Z,12.25
2019-03-04T05:05:19.522Z,12.17
2019-03-04T05:06:19.565Z,12.20
2019-03-04T05:07:19.576Z,12.20
2019-03-04T05:08:19.546Z,12.18
2019-03-04T05:09:19.590Z,12.36
2019-03-04T05:10:19.555Z,12.35
2019-03-04T05:11:19.565Z,12.32
2019-03-04T05:12:19.670Z,12.32
2019-03-04T05:13:19.587Z,12.37
2019-03-04T05:14:19.573Z,12.36
2019-03-04T05:15:19.590Z,12.37
2019-03-04T05:16:19.585Z,12.40
2019-03-04T05:17:19.592Z,12.44
2019-03-04T05:18:19.612Z,12.47
2019-03-04T05:19:19.613Z,12.39
2019-03-04T05:20:19.621Z,12.40
2019-03-04T05:21:19.876Z,12.43
2019-03-04T05:22:19.626Z,12.54
2019-03-04T05:23:19.651Z,12.53
2019-03-04T05:24:19.639Z,12.54
2019-03-04T05:25:19.634Z,12.48
2019-03-04T05:26:19.730Z,12.58
2019-03-04T05:27:19.678Z,12.55
2019-03-04T05:28:19.723Z,12.61
2019-03-04T05:29:19.796Z,12.62
2019-03-04T05:30:19.701Z,12.61
2019-03-04T05:31:19.698Z,12.65
2019-03-04T05:32:19.677Z,12.57
2019-03-04T05:33:19.687Z,12.61
2019-03-04T05:34:19.752Z,12.62
2019-03-04T05:35:19.726Z,12.58
2019-03-04T05:36:19.711Z,12.58
2019-03-04T05:37:19.701Z,12.58
2019-03-04T05:38:19.772Z,12.70
2019-03-04T05:39:19.718Z,12.61
2019-03-04T05:40:19.723Z,12.70
2019-03-04T05:41:19.753Z,12.61
2019-03-04T05:42:19.726Z,12.55
2019-03-04T05:43:19.737Z,12.69
2019-03-04T05:44:19.748Z,12.69
2019-03-04T05:45:19.775Z,12.62
2019-03-04T05:46:19.782Z,12.68
2019-03-04T05:47:19.754Z,12.70
2019-03-04T05:48:19.798Z,12.69
2019-03-04T05:49:19.779Z,12.69
2019-03-04T05:50:19.776Z,12.73
2019-03-04T05:51:19.792Z,12.78
2019-03-04T05:52:19.801Z,12.81
2019-03-04T05:53:19.828Z,12.76
2019-03-04T05:54:19.810Z,12.75
2019-03-04T05:55:19.807Z,12.86
2019-03-04T05:56:19.816Z,12.78
2019-03-04T05:57:19.826Z,12.86
2019-03-04T05:58:19.861Z,12.73
2019-03-04T05:59:20.250Z,12.78
2019-03-04T06:00:19.854Z,12.78
2019-03-04T06:01:19.854Z,12.80
2019-03-04T06:02:19.858Z,12.76
2019-03-04T06:03:19.864Z,12.78
2019-03-04T06:04:19.901Z,12.76
2019-03-04T06:05:19.876Z,12.75
2019-03-04T06:06:19.892Z,12.83
2019-03-04T06:07:19.885Z,12.88
2019-03-04T06:08:19.895Z,12.84
2019-03-04T06:09:19.895Z,12.78
2019-03-04T06:10:19.945Z,12.91
2019-03-04T06:11:19.914Z,12.87
2019-03-04T06:12:19.919Z,12.91
2019-03-04T06:13:19.929Z,12.91
2019-03-04T06:14:19.925Z,12.90
2019-03-04T06:15:19.975Z,12.90
2019-03-04T06:16:19.945Z,12.90
2019-03-04T06:17:19.959Z,12.93
2019-03-04T06:18:19.953Z,12.93
2019-03-04T06:19:20.004Z,12.91
2019-03-04T06:20:19.975Z,12.91
2019-03-04T06:21:20.017Z,12.95
2019-03-04T06:22:19.968Z,12.91
2019-03-04T06:23:19.998Z,12.95
2019-03-04T06:24:20.001Z,12.93
2019-03-04T06:25:20.006Z,12.95
2019-03-04T06:26:20.024Z,13.03
2019-03-04T06:27:20.015Z,12.99
2019-03-04T06:28:20.011Z,13.05
2019-03-04T06:29:20.037Z,13.05
2019-03-04T06:30:20.039Z,13.09
2019-03-04T06:31:20.055Z,13.03
2019-03-04T06:32:20.042Z,13.16
2019-03-04T06:33:20.050Z,13.12
2019-03-04T06:34:20.070Z,13.13
2019-03-04T06:35:20.102Z,13.16
2019-03-04T06:36:20.085Z,13.12
2019-03-04T06:37:20.088Z,13.20
2019-03-04T06:38:20.133Z,13.09
2019-03-04T06:39:20.070Z,13.12
2019-03-04T06:40:20.102Z,13.11
2019-03-04T06:41:20.108Z,13.11
2019-03-04T06:42:20.150Z,13.21
2019-03-04T06:43:20.128Z,13.19
2019-03-04T06:44:20.139Z,13.21
2019-03-04T06:45:20.126Z,13.23
2019-03-04T06:46:20.114Z,13.19
2019-03-04T06:47:20.151Z,13.23
2019-03-04T06:48:20.168Z,13.27
2019-03-04T06:49:20.174Z,13.23
2019-03-04T06:50:20.138Z,13.27
2019-03-04T06:51:20.145Z,13.26
2019-03-04T06:52:20.199Z,13.24
2019-03-04T06:53:20.160Z,13.26
2019-03-04T06:54:20.194Z,13.23
2019-03-04T06:55:20.169Z,13.40
2019-03-04T06:56:20.204Z,13.39
2019-03-04T06:57:28.210Z,13.39
2019-03-04T06:58:20.192Z,13.40
2019-03-04T06:59:20.244Z,13.40
2019-03-04T07:00:20.312Z,13.45
2019-03-04T07:01:20.207Z,13.39
2019-03-04T07:02:20.211Z,13.49
2019-03-04T07:03:20.227Z,13.46
2019-03-04T07:04:20.283Z,13.46
2019-03-04T07:05:20.243Z,13.47
2019-03-04T07:06:20.247Z,13.54
2019-03-04T07:07:20.239Z,13.60
2019-03-04T07:08:20.278Z,13.60
2019-03-04T07:09:20.262Z,13.58
2019-03-04T07:10:20.313Z,13.64
2019-03-04T07:11:22.010Z,13.62
2019-03-04T07:12:20.285Z,13.65
2019-03-04T07:13:20.284Z,13.73
2019-03-04T07:14:20.342Z,13.71
2019-03-04T07:15:20.318Z,13.73
2019-03-04T07:16:20.340Z,13.65
2019-03-04T07:17:20.306Z,13.67
2019-03-04T07:18:20.400Z,13.70
2019-03-04T07:19:20.316Z,13.68
2019-03-04T07:20:20.337Z,13.78
2019-03-04T07:21:20.376Z,13.82
2019-03-04T07:22:20.362Z,13.76
2019-03-04T07:23:20.357Z,13.76
2019-03-04T07:24:20.357Z,13.85
2019-03-04T07:25:20.356Z,13.83
2019-03-04T07:26:20.373Z,13.91
2019-03-04T07:27:20.416Z,13.94
2019-03-04T07:28:20.390Z,13.87
2019-03-04T07:29:20.407Z,13.91
2019-03-04T07:30:20.447Z,13.93
2019-03-04T07:31:20.503Z,13.91
2019-03-04T07:32:20.446Z,13.87
2019-03-04T07:33:20.458Z,13.97
2019-03-04T07:34:20.455Z,13.83
2019-03-04T07:35:20.473Z,13.93
2019-03-04T07:36:20.432Z,13.97
2019-03-04T07:37:20.477Z,13.98
2019-03-04T07:38:20.453Z,13.97
2019-03-04T07:39:20.474Z,13.95
2019-03-04T07:40:20.469Z,13.98
2019-03-04T07:41:20.493Z,14.13
2019-03-04T07:42:20.530Z,14.11
2019-03-04T07:43:20.486Z,14.08
2019-03-04T07:44:20.535Z,14.19
2019-03-04T07:45:21.219Z,14.15
2019-03-04T07:46:20.550Z,14.20
2019-03-04T07:47:20.519Z,14.16
2019-03-04T07:48:20.548Z,14.20
2019-03-04T07:49:20.519Z,14.19
2019-03-04T07:50:20.540Z,14.16
2019-03-04T07:51:20.533Z,14.19
2019-03-04T07:52:20.546Z,14.25
2019-03-04T07:53:20.598Z,14.22
2019-03-04T07:54:20.553Z,14.23
2019-03-04T07:55:20.576Z,14.28
2019-03-04T07:56:20.578Z,14.30
2019-03-04T07:57:20.595Z,14.34
2019-03-04T07:58:20.645Z,14.37
2019-03-04T07:59:20.594Z,14.36
2019-03-04T08:00:20.598Z,14.37
2019-03-04T08:01:20.615Z,14.34
2019-03-04T08:02:20.612Z,14.48
2019-03-04T08:03:20.612Z,14.37
2019-03-04T08:04:20.699Z,14.45
2019-03-04T08:05:20.631Z,14.36
2019-03-04T08:06:20.642Z,14.44
2019-03-04T08:07:20.640Z,14.53
2019-03-04T08:08:20.662Z,14.40
2019-03-04T08:09:20.707Z,14.49
2019-03-04T08:10:20.671Z,14.48
2019-03-04T08:11:20.707Z,14.44
2019-03-04T08:12:20.686Z,14.51
2019-03-04T08:13:20.691Z,14.55
2019-03-04T08:14:20.751Z,14.51
2019-03-04T08:15:20.700Z,14.56
2019-03-04T08:16:20.713Z,14.56
2019-03-04T08:17:20.714Z,14.49
2019-03-04T08:18:20.727Z,14.48
2019-03-04T08:19:20.761Z,14.56
2019-03-04T08:20:20.769Z,14.45
2019-03-04T08:21:20.750Z,14.53
2019-03-04T08:22:20.805Z,14.51
2019-03-04T08:23:20.760Z,14.61
2019-03-04T08:24:20.764Z,14.52
2019-03-04T08:25:20.796Z,14.55
2019-03-04T08:26:20.800Z,14.49
2019-03-04T08:27:20.790Z,14.58
2019-03-04T08:28:20.802Z,14.61
2019-03-04T08:29:20.805Z,14.62
2019-03-04T08:30:20.861Z,14.61
2019-03-04T08:31:20.810Z,14.63
2019-03-04T08:32:20.819Z,14.62
2019-03-04T08:33:20.833Z,14.67
2019-03-04T08:34:30.579Z,14.71
2019-03-04T08:35:20.848Z,14.71
2019-03-04T08:36:20.898Z,14.59
2019-03-04T08:37:20.891Z,14.61
2019-03-04T08:38:20.866Z,14.71
2019-03-04T08:39:22.911Z,14.77
2019-03-04T08:40:20.879Z,14.82
2019-03-04T08:41:20.888Z,14.79
2019-03-04T08:42:20.923Z,14.86
2019-03-04T08:43:20.931Z,14.90
2019-03-04T08:44:20.916Z,15.04
2019-03-04T08:45:20.927Z,14.96
2019-03-04T08:46:20.943Z,15.11
2019-03-04T08:47:20.964Z,15.07
2019-03-04T08:48:20.961Z,15.26
2019-03-04T08:49:20.980Z,15.27
2019-03-04T08:50:20.969Z,15.39
2019-03-04T08:51:20.976Z,15.44
2019-03-04T08:52:20.994Z,15.45
2019-03-04T08:53:21.005Z,15.59
2019-03-04T08:54:21.027Z,15.65
2019-03-04T08:55:21.001Z,15.60
2019-03-04T08:56:21.018Z,15.72
2019-03-04T08:57:21.028Z,15.70
2019-03-04T08:58:21.078Z,15.66
2019-03-04T08:59:21.034Z,15.70
2019-03-04T09:00:21.041Z,15.66
2019-03-04T09:01:21.072Z,15.75
2019-03-04T09:02:21.052Z,15.87
2019-03-04T09:03:21.069Z,15.90
2019-03-04T09:04:21.086Z,15.88
2019-03-04T09:05:21.094Z,15.92
2019-03-04T09:06:21.077Z,15.99
2019-03-04T09:07:21.098Z,16.05
2019-03-04T09:08:21.106Z,16.12
2019-03-04T09:09:21.134Z,16.16
2019-03-04T09:10:21.120Z,16.21
2019-03-04T09:11:21.125Z,16.21
2019-03-04T09:12:21.145Z,16.18
2019-03-04T09:13:21.139Z,16.25
2019-03-04T09:14:21.161Z,16.21
2019-03-04T09:15:21.162Z,16.26
2019-03-04T09:16:21.168Z,16.28
2019-03-04T09:17:21.184Z,16.22
2019-03-04T09:18:21.211Z,16.26
2019-03-04T09:19:21.213Z,16.31
2019-03-04T09:20:21.187Z,16.25
2019-03-04T09:21:21.202Z,16.43
2019-03-04T09:22:21.246Z,16.36
2019-03-04T09:23:21.241Z,16.47
2019-03-04T09:24:21.234Z,16.44
2019-03-04T09:25:30.067Z,16.40
2019-03-04T09:26:21.249Z,16.47
2019-03-04T09:27:21.282Z,16.43
2019-03-04T09:28:21.282Z,16.54
2019-03-04T09:29:21.278Z,16.49
2019-03-04T09:30:21.306Z,16.54
2019-03-04T09:31:21.295Z,16.50
2019-03-04T09:32:21.365Z,16.54
2019-03-04T09:33:21.325Z,16.54
2019-03-04T09:34:21.314Z,16.58
2019-03-04T09:35:21.339Z,16.50
2019-03-04T09:36:21.322Z,16.51
2019-03-04T09:37:21.370Z,16.59
2019-03-04T09:38:21.405Z,16.47
2019-03-04T09:39:21.379Z,16.57
2019-03-04T09:40:21.366Z,16.51
2019-03-04T09:41:21.392Z,16.61
2019-03-04T09:42:21.394Z,16.59
2019-03-04T09:43:21.409Z,16.57
2019-03-04T09:44:21.389Z,16.51
2019-03-04T09:45:21.437Z,16.58
2019-03-04T09:46:21.402Z,16.59
2019-03-04T09:47:21.420Z,16.51
2019-03-04T09:48:21.443Z,16.51
2019-03-04T09:49:21.433Z,16.49
2019-03-04T09:50:21.483Z,16.64
2019-03-04T09:51:24.562Z,16.51
2019-03-04T09:52:21.457Z,16.51
2019-03-04T09:53:21.535Z,16.54
2019-03-04T09:54:21.480Z,16.49
2019-03-04T09:55:21.499Z,16.47
2019-03-04T09:56:21.521Z,16.37
2019-03-04T09:57:21.501Z,16.43
2019-03-04T09:58:21.558Z,16.41
2019-03-04T09:59:21.657Z,16.44
2019-03-04T10:00:21.540Z,16.32
2019-03-04T10:01:21.541Z,16.36
2019-03-04T10:02:21.535Z,16.39
2019-03-04T10:03:21.564Z,16.28
2019-03-04T10:04:21.624Z,16.26
2019-03-04T10:05:21.597Z,16.29
2019-03-04T10:06:21.639Z,16.36
2019-03-04T10:07:21.604Z,16.29
2019-03-04T10:08:21.598Z,16.28
2019-03-04T10:09:21.619Z,16.26
2019-03-04T10:10:21.608Z,16.28
2019-03-04T10:11:21.647Z,16.28
2019-03-04T10:12:21.661Z,16.25
2019-03-04T10:13:21.645Z,16.29
2019-03-04T10:14:21.652Z,16.25
2019-03-04T10:15:21.661Z,16.28
2019-03-04T10:16:21.648Z,16.29
2019-03-04T10:17:21.681Z,16.26
2019-03-04T10:18:21.740Z,16.28
2019-03-04T10:19:21.674Z,16.29
2019-03-04T10:20:21.688Z,16.36
2019-03-04T10:21:21.697Z,16.29
2019-03-04T10:22:21.719Z,16.32
2019-03-04T10:23:21.715Z,16.29
2019-03-04T10:24:21.763Z,16.39
2019-03-04T10:25:21.733Z,16.31
2019-03-04T10:26:23.003Z,16.43
2019-03-04T10:27:21.756Z,16.37
2019-03-04T10:28:21.745Z,16.44
2019-03-04T10:29:21.848Z,16.41
2019-03-04T10:30:21.768Z,16.40
2019-03-04T10:31:21.769Z,16.61
2019-03-04T10:32:21.791Z,16.46
2019-03-04T10:33:21.809Z,16.54
2019-03-04T10:34:21.790Z,16.62
2019-03-04T10:35:21.842Z,16.65
2019-03-04T10:36:21.830Z,16.64
2019-03-04T10:37:21.855Z,16.65
2019-03-04T10:38:22.880Z,16.73
2019-03-04T10:39:22.405Z,16.68
2019-03-04T10:40:21.860Z,16.73
2019-03-04T10:41:21.890Z,16.66
2019-03-04T10:42:21.967Z,16.69
2019-03-04T10:43:21.888Z,16.72
2019-03-04T10:44:21.892Z,16.69
2019-03-04T10:45:21.900Z,16.77
2019-03-04T10:46:21.913Z,16.83
2019-03-04T10:47:21.928Z,16.76
2019-03-04T10:48:21.963Z,16.92
2019-03-04T10:49:21.936Z,16.92
2019-03-04T10:50:21.941Z,16.99
2019-03-04T10:51:21.939Z,16.95
2019-03-04T10:52:21.952Z,16.94
2019-03-04T10:53:21.968Z,17.14
2019-03-04T10:54:22.011Z,17.10
2019-03-04T10:55:21.980Z,17.07
2019-03-04T10:56:21.989Z,17.09
2019-03-04T10:57:21.997Z,17.16
2019-03-04T10:58:22.044Z,17.09
2019-03-04T10:59:22.037Z,17.14
2019-03-04T11:00:22.026Z,17.07
2019-03-04T11:01:30.185Z,17.07
2019-03-04T11:02:22.032Z,16.94
2019-03-04T11:03:22.066Z,16.82
2019-03-04T11:04:22.098Z,16.91
2019-03-04T11:05:22.094Z,16.84
2019-03-04T11:06:22.104Z,16.84
2019-03-04T11:07:22.074Z,16.77
2019-03-04T11:08:22.098Z,16.66
2019-03-04T11:09:22.097Z,16.64
2019-03-04T11:10:22.140Z,16.62
2019-03-04T11:11:29.490Z,16.58
2019-03-04T11:12:22.155Z,16.72
2019-03-04T11:13:22.135Z,16.66
2019-03-04T11:14:22.140Z,16.66
2019-03-04T11:15:22.165Z,16.47
2019-03-04T11:16:22.205Z,16.54
2019-03-04T11:17:22.188Z,16.57
2019-03-04T11:18:22.183Z,16.43
2019-03-04T11:19:22.205Z,16.40
2019-03-04T11:20:22.218Z,16.34
2019-03-04T11:21:22.263Z,16.29
2019-03-04T11:22:22.221Z,16.40
2019-03-04T11:23:22.235Z,16.44
2019-03-04T11:24:22.229Z,16.47
2019-03-04T11:25:22.237Z,16.51
2019-03-04T11:26:22.282Z,16.59
2019-03-04T11:27:22.283Z,16.65
2019-03-04T11:28:22.296Z,16.64
2019-03-04T11:29:22.301Z,16.72
2019-03-04T11:30:22.313Z,16.62
2019-03-04T11:31:22.363Z,16.34
2019-03-04T11:32:22.371Z,16.16
2019-03-04T11:33:22.329Z,15.87
2019-03-04T11:34:22.356Z,15.73
2019-03-04T11:35:22.350Z,15.55
2019-03-04T11:36:22.335Z,15.22
2019-03-04T11:37:22.424Z,15.35
2019-03-04T11:38:22.371Z,15.11
2019-03-04T11:39:22.410Z,15.11
2019-03-04T11:40:22.385Z,15.00
2019-03-04T11:41:22.397Z,14.81
2019-03-04T11:42:22.378Z,14.81
2019-03-04T11:43:22.414Z,14.81
2019-03-04T11:44:22.415Z,14.59
2019-03-04T11:45:22.472Z,14.36
2019-03-04T11:46:22.440Z,14.20
2019-03-04T11:47:22.428Z,14.08
2019-03-04T11:48:22.437Z,14.08
2019-03-04T11:49:22.446Z,13.95
2019-03-04T11:50:22.435Z,13.97
2019-03-04T11:51:22.477Z,13.80
2019-03-04T11:52:22.496Z,13.85
2019-03-04T11:53:22.480Z,13.79
2019-03-04T11:54:22.480Z,13.79
2019-03-04T11:55:22.626Z,13.85
2019-03-04T11:56:22.505Z,13.68
2019-03-04T11:57:22.503Z,13.75
2019-03-04T11:58:22.487Z,13.62
2019-03-04T11:59:22.529Z,13.54
2019-03-04T12:00:22.517Z,13.23
2019-03-04T12:01:22.587Z,13.24
2019-03-04T12:02:22.534Z,13.33
2019-03-04T12:03:22.538Z,13.26
2019-03-04T12:04:22.555Z,13.30
2019-03-04T12:05:22.543Z,13.33
2019-03-04T12:06:22.546Z,13.28
2019-03-04T12:07:22.586Z,13.20
2019-03-04T12:08:22.577Z,13.06
2019-03-04T12:09:22.596Z,13.11
2019-03-04T12:10:22.621Z,13.06
2019-03-04T12:11:22.578Z,13.05
2019-03-04T12:12:22.664Z,13.05
2019-03-04T12:13:22.602Z,13.05
2019-03-04T12:14:22.607Z,12.90
2019-03-04T12:15:22.600Z,13.02
2019-03-04T12:16:22.614Z,12.87
2019-03-04T12:17:22.666Z,12.99
2019-03-04T12:18:22.668Z,12.90
2019-03-04T12:19:22.644Z,13.02
2019-03-04T12:20:22.642Z,13.11
2019-03-04T12:21:22.656Z,13.11
2019-03-04T12:22:22.663Z,13.17
2019-03-04T12:23:22.710Z,13.16
2019-03-04T12:24:22.712Z,13.11
2019-03-04T12:25:22.682Z,13.13
2019-03-04T12:26:22.684Z,13.26
2019-03-04T12:27:22.693Z,13.24
2019-03-04T12:28:22.695Z,13.23
2019-03-04T12:29:22.736Z,13.27
2019-03-04T12:30:22.717Z,13.20
2019-03-04T12:31:22.732Z,13.43
2019-03-04T12:32:22.719Z,13.49
2019-03-04T12:33:22.742Z,13.57
2019-03-04T12:34:24.894Z,13.62
2019-03-04T12:35:22.771Z,13.65
2019-03-04T12:36:22.757Z,13.67
2019-03-04T12:37:22.755Z,13.70
2019-03-04T12:38:22.783Z,13.68
2019-03-04T12:39:22.797Z,13.65
2019-03-04T12:40:22.786Z,13.68
2019-03-04T12:41:22.827Z,13.80
2019-03-04T12:42:22.819Z,13.80
2019-03-04T12:43:22.816Z,13.79
2019-03-04T12:44:22.804Z,13.86
2019-03-04T12:45:22.838Z,13.87
2019-03-04T12:46:22.819Z,13.87
2019-03-04T12:47:22.820Z,13.91
2019-03-04T12:48:22.838Z,13.85
2019-03-04T12:49:22.854Z,13.94
2019-03-04T12:50:22.892Z,14.04
2019-03-04T12:51:23.623Z,14.20
2019-03-04T12:52:23.365Z,14.08